Decoded Metar for NZAA (AUCKLAND in NEW ZEALAND) (IATA:AKL) | Meteo·Mobile Aviation Weather
aviador You're here:

NZAA Decoded Metar

AUCKLAND in NEW ZEALAND
Report Time2018-12-17 10:00:00
UTC Time2018-12-17 10:13:07
Flight Rules vfr VFR
Wind180° at 03 kt
W.Decomp.*RWY 23: 1.0 kt HW 2.8 kt LCW
W.Rank180° ranks 28
Current wind is below 180° avg. (5.6)
Visibility9999 m
Phenomena:N/A
Clouds:Broken 065 Hf
Expected CloudBase > 800 ft AGL from Temp-Dew spread
Ceiling6,500 ft
Temp19°C (ISA +4)
Dew Point17°C (88% RH)
QNH1023 hPa
Density Alt413 ft
Elevation20 ft
Report Wrong Elevation
Raw Report
NZAA 171000Z AUTO 18003KT 9999 BKN065/// 19/17 Q1023 NOSIG=

Extra information for NZAA:More info

Metar Taf Metar & Taf Last 4 Metars F.Rules Stats Wind Profile Meteogram Temp Stats Airport Information Weather charts Add Link Nearby VenuesMetar ALERT Operation Metar Decoded Social comments